Time;durP1;ratioP1;P1;durP2;ratioP2;P2;SDS_P1;SDS_P2;PMS_P1;PMS_P2;Temp;Humidity;BMP_temperature;BMP_pressure;BME280_temperature;BME280_humidity;BME280_pressure;Samples;Min_cycle;Max_cycle;Signal;HPM_P1;HPM_P2
2024/03/06 00:00:18;;;;;;;105.03;54.45;;;;;;;;;;1591255;88;25842;-67
2024/03/06 00:02:46;;;;;;;105.92;53.65;;;;;;;;;;1569320;89;25685;-66
2024/03/06 00:05:15;;;;;;;104.27;55.70;;;;;;;;;;1607925;88;27627;-67
2024/03/06 00:07:41;;;;;;;106.17;55.80;;;;;;;;;;1586107;88;26166;-65
2024/03/06 00:10:09;;;;;;;99.32;51.88;;;;;;;;;;1576281;88;25950;-74
2024/03/06 00:12:36;;;;;;;100.60;53.02;;;;;;;;;;1584507;89;26059;-76
2024/03/06 00:15:02;;;;;;;107.97;52.48;;;;;;;;;;1584230;89;25980;-76
2024/03/06 00:17:28;;;;;;;93.45;50.98;;;;;;;;;;1584736;89;28229;-77
2024/03/06 00:19:55;;;;;;;98.40;52.48;;;;;;;;;;1605464;87;25670;-75
2024/03/06 00:22:21;;;;;;;95.17;51.30;;;;;;;;;;1637541;85;25750;-76
2024/03/06 00:24:48;;;;;;;88.00;50.95;;;;;;;;;;1652245;85;25844;-76
2024/03/06 00:27:14;;;;;;;82.42;47.85;;;;;;;;;;1643360;85;25516;-76
2024/03/06 00:29:40;;;;;;;87.37;49.45;;;;;;;;;;1640297;85;27559;-75
2024/03/06 00:32:07;;;;;;;82.00;47.67;;;;;;;;;;1643890;85;25778;-75
2024/03/06 00:34:34;;;;;;;85.57;48.42;;;;;;;;;;1644047;85;25931;-75
2024/03/06 00:37:00;;;;;;;83.40;46.23;;;;;;;;;;1650997;85;25767;-76
2024/03/06 00:39:27;;;;;;;82.30;48.65;;;;;;;;;;1643156;85;25751;-76
2024/03/06 00:41:54;;;;;;;86.02;47.40;;;;;;;;;;1651253;85;28236;-76
2024/03/06 00:44:21;;;;;;;78.50;45.60;;;;;;;;;;1610926;87;25577;-78
2024/03/06 00:46:47;;;;;;;77.97;43.78;;;;;;;;;;1630601;86;26105;-76
2024/03/06 00:49:14;;;;;;;78.52;44.23;;;;;;;;;;1630349;87;26907;-77
2024/03/06 00:51:41;;;;;;;78.83;44.80;;;;;;;;;;1652427;85;25939;-77
2024/03/06 00:54:07;;;;;;;66.50;42.00;;;;;;;;;;1642392;85;27432;-77
2024/03/06 00:56:39;;;;;;;69.37;41.15;;;;;;;;;;1632491;85;25761;-77
2024/03/06 00:59:05;;;;;;;72.92;41.50;;;;;;;;;;1654609;86;25596;-76
2024/03/06 01:01:32;;;;;;;68.75;40.35;;;;;;;;;;1646450;85;26377;-75
2024/03/06 01:03:59;;;;;;;68.25;40.35;;;;;;;;;;1720136;81;25405;-77
2024/03/06 01:06:26;;;;;;;64.67;39.67;;;;;;;;;;1745877;81;27362;-77
2024/03/06 01:08:52;;;;;;;62.62;38.53;;;;;;;;;;1731346;80;25784;-79
2024/03/06 01:11:21;;;;;;;60.28;37.88;;;;;;;;;;1744995;80;25674;-77
2024/03/06 01:13:48;;;;;;;60.12;37.17;;;;;;;;;;1724229;82;25905;-77
2024/03/06 01:16:14;;;;;;;59.38;37.28;;;;;;;;;;1726970;82;25870;-77
2024/03/06 01:18:44;;;;;;;56.23;35.75;;;;;;;;;;1746977;81;28210;-77
2024/03/06 01:21:11;;;;;;;58.35;36.23;;;;;;;;;;1745078;81;25640;-77
2024/03/06 01:23:40;;;;;;;55.63;35.75;;;;;;;;;;1727858;82;25812;-77
2024/03/06 01:26:06;;;;;;;58.60;34.45;;;;;;;;;;1742753;81;25853;-77
2024/03/06 01:28:33;;;;;;;55.15;34.30;;;;;;;;;;1722382;80;25633;-77
2024/03/06 01:31:00;;;;;;;64.62;35.50;;;;;;;;;;1733394;81;27503;-75
2024/03/06 01:33:27;;;;;;;50.33;34.18;;;;;;;;;;1715442;82;25839;-76
2024/03/06 01:35:59;;;;;;;58.17;35.33;;;;;;;;;;1707586;83;25473;-78
2024/03/06 01:38:27;;;;;;;54.45;34.20;;;;;;;;;;1714134;82;25760;-75
2024/03/06 01:40:54;;;;;;;53.45;32.13;;;;;;;;;;1705459;82;25818;-76
2024/03/06 01:43:22;;;;;;;54.15;32.50;;;;;;;;;;1705964;82;27428;-76
2024/03/06 01:45:50;;;;;;;51.85;31.87;;;;;;;;;;1714359;83;25574;-79
2024/03/06 01:48:18;;;;;;;49.77;33.02;;;;;;;;;;1703809;82;25904;-76
2024/03/06 01:50:45;;;;;;;50.58;32.10;;;;;;;;;;1697138;82;25831;-78
2024/03/06 01:53:15;;;;;;;49.85;30.92;;;;;;;;;;1663414;81;25660;-75
2024/03/06 01:55:44;;;;;;;50.30;30.43;;;;;;;;;;1692595;82;28036;-75
2024/03/06 01:58:13;;;;;;;48.40;31.10;;;;;;;;;;1711612;82;25905;-75
2024/03/06 02:00:41;;;;;;;49.97;29.77;;;;;;;;;;1715791;83;25887;-75
2024/03/06 02:03:14;;;;;;;53.55;30.80;;;;;;;;;;1715615;82;26179;-76
2024/03/06 02:05:43;;;;;;;47.98;30.32;;;;;;;;;;1697357;82;25731;-75
2024/03/06 02:08:11;;;;;;;49.30;29.25;;;;;;;;;;1685115;84;27371;-75
2024/03/06 02:10:38;;;;;;;45.73;29.63;;;;;;;;;;1646552;86;25763;-75
2024/03/06 02:13:06;;;;;;;49.48;30.15;;;;;;;;;;1671667;83;25567;-75
2024/03/06 02:15:32;;;;;;;46.08;28.30;;;;;;;;;;1647499;85;25616;-74
2024/03/06 02:18:01;;;;;;;48.48;29.32;;;;;;;;;;1650129;85;25616;-74
2024/03/06 02:20:28;;;;;;;53.50;28.12;;;;;;;;;;1654638;85;27386;-75
2024/03/06 02:22:54;;;;;;;48.08;30.00;;;;;;;;;;1642541;85;25723;-75
2024/03/06 02:25:21;;;;;;;44.80;29.37;;;;;;;;;;1650978;85;25618;-75
2024/03/06 02:27:50;;;;;;;56.37;29.63;;;;;;;;;;1653860;85;26311;-77
2024/03/06 02:30:22;;;;;;;46.53;27.32;;;;;;;;;;1673752;84;25570;-75
2024/03/06 02:32:48;;;;;;;42.40;27.70;;;;;;;;;;1682219;82;27410;-75
2024/03/06 02:35:15;;;;;;;43.95;26.02;;;;;;;;;;1720509;81;25678;-75
2024/03/06 02:37:44;;;;;;;50.28;28.85;;;;;;;;;;1720995;80;25584;-75
2024/03/06 02:40:13;;;;;;;43.90;27.93;;;;;;;;;;1720398;82;25607;-74
2024/03/06 02:42:39;;;;;;;52.62;30.30;;;;;;;;;;1733778;80;25411;-75
2024/03/06 02:45:08;;;;;;;43.45;26.42;;;;;;;;;;1743056;80;28133;-75
2024/03/06 02:47:35;;;;;;;49.40;28.40;;;;;;;;;;1722562;80;25504;-75
2024/03/06 02:50:02;;;;;;;47.15;28.40;;;;;;;;;;1732312;80;25696;-75
2024/03/06 02:52:31;;;;;;;46.25;28.55;;;;;;;;;;1732458;80;26468;-75
2024/03/06 02:55:01;;;;;;;50.70;28.65;;;;;;;;;;1715775;80;25551;-75
2024/03/06 02:57:33;;;;;;;43.85;26.37;;;;;;;;;;1745707;80;26869;-75
2024/03/06 02:59:58;;;;;;;44.23;28.35;;;;;;;;;;1719996;82;25584;-79
2024/03/06 03:02:27;;;;;;;41.85;27.40;;;;;;;;;;1750451;80;25669;-75
2024/03/06 03:04:54;;;;;;;45.20;27.50;;;;;;;;;;1744546;81;25800;-74
2024/03/06 03:07:20;;;;;;;42.25;27.10;;;;;;;;;;1736249;80;25460;-75
2024/03/06 03:09:47;;;;;;;51.23;28.50;;;;;;;;;;1742033;80;27897;-75
2024/03/06 03:12:14;;;;;;;42.23;26.33;;;;;;;;;;1746421;80;25823;-75
2024/03/06 03:14:41;;;;;;;44.45;26.57;;;;;;;;;;1736578;80;25657;-75
2024/03/06 03:17:10;;;;;;;46.25;27.02;;;;;;;;;;1725617;80;25863;-76
2024/03/06 03:19:39;;;;;;;45.85;27.80;;;;;;;;;;1734149;81;25557;-75
2024/03/06 03:22:09;;;;;;;41.10;27.90;;;;;;;;;;1742315;80;27343;-76
2024/03/06 03:24:37;;;;;;;42.35;27.45;;;;;;;;;;1722804;81;25568;-76
2024/03/06 03:27:04;;;;;;;44.33;27.02;;;;;;;;;;1746426;81;25839;-76
2024/03/06 03:29:31;;;;;;;46.80;27.80;;;;;;;;;;1742834;80;26046;-76
2024/03/06 03:32:01;;;;;;;41.20;25.80;;;;;;;;;;1736103;80;25453;-76
2024/03/06 03:34:31;;;;;;;45.33;26.82;;;;;;;;;;1732437;81;27392;-75
2024/03/06 03:37:01;;;;;;;43.17;26.37;;;;;;;;;;1716002;81;25585;-75
2024/03/06 03:39:29;;;;;;;41.92;26.80;;;;;;;;;;1740672;81;25585;-75
2024/03/06 03:41:55;;;;;;;48.30;27.32;;;;;;;;;;1726786;80;25885;-75
2024/03/06 03:44:22;;;;;;;41.88;26.95;;;;;;;;;;1745266;81;25421;-76
2024/03/06 03:46:49;;;;;;;42.75;27.02;;;;;;;;;;1727721;81;27328;-76
2024/03/06 03:49:16;;;;;;;39.75;25.65;;;;;;;;;;1734355;80;25583;-75
2024/03/06 03:51:42;;;;;;;44.45;27.10;;;;;;;;;;1737017;80;25904;-75
2024/03/06 03:54:09;;;;;;;42.20;25.48;;;;;;;;;;1747350;81;25791;-69
2024/03/06 03:56:35;;;;;;;46.98;27.30;;;;;;;;;;1718942;81;25696;-68
2024/03/06 03:59:01;;;;;;;38.45;25.55;;;;;;;;;;1715395;82;28068;-69
2024/03/06 04:01:27;;;;;;;42.83;26.75;;;;;;;;;;1732216;81;25888;-69
2024/03/06 04:03:55;;;;;;;40.38;25.60;;;;;;;;;;1738661;81;25492;-69
2024/03/06 04:06:21;;;;;;;44.30;26.40;;;;;;;;;;1722247;81;26207;-69
2024/03/06 04:08:48;;;;;;;46.73;26.85;;;;;;;;;;1730210;81;25599;-69
2024/03/06 04:11:16;;;;;;;41.63;26.97;;;;;;;;;;1728972;81;27739;-69
2024/03/06 04:13:46;;;;;;;44.30;26.10;;;;;;;;;;1732412;81;25564;-69
2024/03/06 04:16:18;;;;;;;40.48;25.57;;;;;;;;;;1739488;81;25832;-69
2024/03/06 04:18:45;;;;;;;43.05;27.25;;;;;;;;;;1750548;81;25593;-69
2024/03/06 04:21:11;;;;;;;39.83;26.33;;;;;;;;;;1728363;81;25619;-69
2024/03/06 04:23:37;;;;;;;43.15;27.00;;;;;;;;;;1728803;81;28001;-69
2024/03/06 04:26:05;;;;;;;46.68;26.35;;;;;;;;;;1738212;81;33285;-69
2024/03/06 04:28:32;;;;;;;45.63;26.85;;;;;;;;;;1740941;81;25660;-69
2024/03/06 04:31:06;;;;;;;42.55;26.42;;;;;;;;;;1735336;81;25654;-69
2024/03/06 04:33:32;;;;;;;48.85;27.37;;;;;;;;;;1734539;81;25481;-69
2024/03/06 04:36:02;;;;;;;43.70;27.80;;;;;;;;;;1720120;81;27368;-69
2024/03/06 04:38:29;;;;;;;;;;;;;;;;;;1736139;81;26316;-69
2024/03/06 04:40:55;;;;;;;41.73;26.12;;;;;;;;;;1723099;81;25524;-69
2024/03/06 04:43:21;;;;;;;44.00;27.65;;;;;;;;;;1716785;83;35003;-69
2024/03/06 04:45:48;;;;;;;41.92;26.57;;;;;;;;;;1733197;81;25634;-70
2024/03/06 04:48:17;;;;;;;47.60;27.40;;;;;;;;;;1731674;81;27802;-71
2024/03/06 04:50:47;;;;;;;42.70;25.90;;;;;;;;;;1715162;83;25635;-70
2024/03/06 04:53:13;;;;;;;43.92;27.15;;;;;;;;;;1749969;81;25596;-71
2024/03/06 04:55:39;;;;;;;44.85;26.75;;;;;;;;;;1732664;81;25785;-71
2024/03/06 04:58:06;;;;;;;41.45;26.17;;;;;;;;;;1734901;81;25422;-70
2024/03/06 05:00:32;;;;;;;45.43;27.55;;;;;;;;;;1727329;81;26732;-70
2024/03/06 05:02:59;;;;;;;43.85;26.12;;;;;;;;;;1740108;81;33001;-70
2024/03/06 05:05:25;;;;;;;46.23;26.37;;;;;;;;;;1742644;81;25819;-70
2024/03/06 05:07:51;;;;;;;41.80;26.12;;;;;;;;;;1723539;81;26293;-70
2024/03/06 05:10:17;;;;;;;40.73;24.67;;;;;;;;;;1736919;81;25464;-70
2024/03/06 05:12:43;;;;;;;40.03;25.35;;;;;;;;;;1732210;81;27350;-70
2024/03/06 05:15:11;;;;;;;39.85;24.50;;;;;;;;;;1721868;81;25868;-70
2024/03/06 05:17:37;;;;;;;46.00;25.23;;;;;;;;;;1727184;81;25460;-70
2024/03/06 05:20:07;;;;;;;42.80;24.70;;;;;;;;;;1716976;81;25839;-70
2024/03/06 05:22:35;;;;;;;43.05;24.27;;;;;;;;;;1709738;83;25837;-70
2024/03/06 05:25:01;;;;;;;44.13;24.72;;;;;;;;;;1732167;81;27542;-70
2024/03/06 05:27:27;;;;;;;44.18;26.20;;;;;;;;;;1734853;81;25542;-70
2024/03/06 05:29:55;;;;;;;39.27;23.25;;;;;;;;;;1731870;81;25576;-70
2024/03/06 05:32:25;;;;;;;42.45;24.10;;;;;;;;;;1742470;81;25692;-70
2024/03/06 05:34:51;;;;;;;42.10;23.85;;;;;;;;;;1741688;81;25794;-70
2024/03/06 05:37:17;;;;;;;36.53;23.60;;;;;;;;;;1745897;81;27959;-70
2024/03/06 05:39:43;;;;;;;39.27;24.00;;;;;;;;;;1751507;81;25827;-69
2024/03/06 05:42:09;;;;;;;39.13;23.42;;;;;;;;;;1728734;81;25428;-70
2024/03/06 05:44:35;;;;;;;41.50;25.40;;;;;;;;;;1733400;81;25748;-70
2024/03/06 05:47:03;;;;;;;38.28;23.75;;;;;;;;;;1727406;81;32371;-69
2024/03/06 05:49:32;;;;;;;37.28;22.82;;;;;;;;;;1734794;81;27338;-70
2024/03/06 05:51:58;;;;;;;38.70;24.05;;;;;;;;;;1726085;81;25594;-68
2024/03/06 05:54:24;;;;;;;39.58;23.32;;;;;;;;;;1730925;81;25619;-71
2024/03/06 05:56:53;;;;;;;39.83;25.05;;;;;;;;;;1730110;81;35027;-70
2024/03/06 05:59:20;;;;;;;40.25;24.15;;;;;;;;;;1739023;81;25492;-68
2024/03/06 06:01:46;;;;;;;40.38;23.85;;;;;;;;;;1737708;81;27302;-69
2024/03/06 06:04:14;;;;;;;38.20;22.95;;;;;;;;;;1744685;81;25579;-67
2024/03/06 06:06:41;;;;;;;37.42;23.25;;;;;;;;;;1731877;81;25855;-66
2024/03/06 06:09:07;;;;;;;36.83;22.77;;;;;;;;;;1719823;81;26091;-67
2024/03/06 06:11:34;;;;;;;36.23;21.95;;;;;;;;;;1742474;81;25455;-67
2024/03/06 06:14:01;;;;;;;34.58;20.88;;;;;;;;;;1730138;81;27438;-66
2024/03/06 06:16:38;;;;;;;35.90;21.80;;;;;;;;;;1739121;81;25457;-69
2024/03/06 06:19:07;;;;;;;32.40;20.55;;;;;;;;;;1745195;81;25776;-67
2024/03/06 06:21:35;;;;;;;37.20;20.40;;;;;;;;;;1725833;81;25676;-67
2024/03/06 06:24:07;;;;;;;32.30;19.90;;;;;;;;;;1733067;81;25666;-67
2024/03/06 06:26:35;;;;;;;30.27;19.50;;;;;;;;;;1723568;81;28478;-68
2024/03/06 06:29:01;;;;;;;31.85;18.52;;;;;;;;;;1737750;81;25820;-67
2024/03/06 06:31:27;;;;;;;31.50;18.80;;;;;;;;;;1740257;81;25720;-65
2024/03/06 06:33:54;;;;;;;31.15;18.95;;;;;;;;;;1740536;81;25666;-68
2024/03/06 06:36:20;;;;;;;31.57;19.40;;;;;;;;;;1714083;81;25884;-68
2024/03/06 06:38:50;;;;;;;31.00;18.85;;;;;;;;;;1726744;81;27903;-67
2024/03/06 06:41:19;;;;;;;29.75;18.73;;;;;;;;;;1728340;81;25749;-67
2024/03/06 06:43:47;;;;;;;31.37;18.25;;;;;;;;;;1745968;81;25734;-66
2024/03/06 06:46:13;;;;;;;29.52;18.67;;;;;;;;;;1723293;81;26284;-67
2024/03/06 06:48:42;;;;;;;28.85;17.65;;;;;;;;;;1737971;81;25571;-68
2024/03/06 06:51:09;;;;;;;30.70;18.12;;;;;;;;;;1727670;81;27740;-68
2024/03/06 06:53:35;;;;;;;32.35;18.55;;;;;;;;;;1725807;81;25450;-68
2024/03/06 06:56:01;;;;;;;34.33;19.05;;;;;;;;;;1743189;81;25544;-68
2024/03/06 06:58:29;;;;;;;31.42;18.75;;;;;;;;;;1751716;81;26661;-67
2024/03/06 07:00:55;;;;;;;35.00;18.55;;;;;;;;;;1733941;81;25779;-67
2024/03/06 07:03:23;;;;;;;30.35;18.45;;;;;;;;;;1715907;82;27686;-67
2024/03/06 07:05:54;;;;;;;35.60;19.37;;;;;;;;;;1749839;81;25565;-67
2024/03/06 07:08:21;;;;;;;33.40;18.52;;;;;;;;;;1732190;81;25862;-67
2024/03/06 07:10:54;;;;;;;33.05;18.52;;;;;;;;;;1736500;81;25658;-66
2024/03/06 07:13:19;;;;;;;31.10;19.00;;;;;;;;;;1737385;81;25552;-66
2024/03/06 07:15:48;;;;;;;27.67;16.87;;;;;;;;;;1664288;85;27753;-66
2024/03/06 07:18:15;;;;;;;27.60;16.95;;;;;;;;;;1729157;81;25549;-66
2024/03/06 07:20:41;;;;;;;28.52;17.10;;;;;;;;;;1736355;81;29878;-66
2024/03/06 07:23:07;;;;;;;26.57;14.93;;;;;;;;;;1738256;81;26022;-66
2024/03/06 07:25:34;;;;;;;29.60;16.27;;;;;;;;;;1714686;82;32225;-66
2024/03/06 07:28:00;;;;;;;29.75;16.73;;;;;;;;;;1727353;81;27210;-66
2024/03/06 07:30:29;;;;;;;31.27;16.23;;;;;;;;;;1747287;80;25632;-66
2024/03/06 07:32:57;;;;;;;31.55;17.73;;;;;;;;;;1739192;81;25487;-66
2024/03/06 07:35:26;;;;;;;32.10;17.67;;;;;;;;;;1726156;81;34717;-67
2024/03/06 07:37:52;;;;;;;29.05;17.37;;;;;;;;;;1733108;81;26465;-67
2024/03/06 07:40:21;;;;;;;26.35;16.62;;;;;;;;;;1729132;81;27924;-68
2024/03/06 07:42:47;;;;;;;30.68;18.65;;;;;;;;;;1719486;83;25517;-67
2024/03/06 07:45:16;;;;;;;32.17;19.03;;;;;;;;;;1718496;83;25629;-68
2024/03/06 07:47:44;;;;;;;35.85;19.32;;;;;;;;;;1723965;81;26039;-68
2024/03/06 07:50:19;;;;;;;31.05;18.75;;;;;;;;;;1730153;81;25387;-68
2024/03/06 07:52:46;;;;;;;33.02;19.52;;;;;;;;;;1731108;81;27399;-67
2024/03/06 07:55:18;;;;;;;34.90;19.67;;;;;;;;;;1744686;81;25521;-67
2024/03/06 07:57:44;;;;;;;27.07;17.85;;;;;;;;;;1744998;81;25576;-67
2024/03/06 08:00:19;;;;;;;29.50;18.48;;;;;;;;;;1720189;81;25991;-67
2024/03/06 08:02:50;;;;;;;32.03;19.25;;;;;;;;;;1727503;81;25647;-67
2024/03/06 08:05:19;;;;;;;32.38;17.95;;;;;;;;;;1744587;81;28529;-67
2024/03/06 08:07:45;;;;;;;33.05;18.17;;;;;;;;;;1739030;81;25686;-67
2024/03/06 08:10:17;;;;;;;34.18;16.70;;;;;;;;;;1715979;81;25417;-68
2024/03/06 08:12:48;;;;;;;36.45;21.07;;;;;;;;;;1725339;81;26248;-67
2024/03/06 08:15:14;;;;;;;30.90;17.98;;;;;;;;;;1724151;81;25627;-67
2024/03/06 08:17:44;;;;;;;32.53;18.05;;;;;;;;;;1752718;81;27738;-67
2024/03/06 08:20:12;;;;;;;31.48;18.05;;;;;;;;;;1708755;82;25486;-67
2024/03/06 08:22:42;;;;;;;33.28;19.70;;;;;;;;;;1746960;81;25778;-67
2024/03/06 08:25:12;;;;;;;34.35;19.05;;;;;;;;;;1750230;81;25792;-67
2024/03/06 08:27:43;;;;;;;30.80;18.30;;;;;;;;;;1739229;81;25504;-67
2024/03/06 08:30:13;;;;;;;29.10;18.48;;;;;;;;;;1737080;81;27388;-67
2024/03/06 08:32:43;;;;;;;29.70;18.27;;;;;;;;;;1667604;85;25521;-67
2024/03/06 08:35:13;;;;;;;29.75;18.60;;;;;;;;;;1667634;84;25469;-67
2024/03/06 08:37:42;;;;;;;26.73;18.40;;;;;;;;;;1675583;84;25502;-58
2024/03/06 08:40:17;;;;;;;30.97;18.70;;;;;;;;;;1726948;82;25555;-58
2024/03/06 08:42:48;;;;;;;28.80;18.00;;;;;;;;;;1734499;81;28181;-59
2024/03/06 08:45:17;;;;;;;32.50;18.87;;;;;;;;;;1718764;81;25773;-59
2024/03/06 08:47:48;;;;;;;26.80;16.07;;;;;;;;;;1741784;81;25818;-60
2024/03/06 08:50:14;;;;;;;27.90;15.88;;;;;;;;;;1731659;81;26281;-59
2024/03/06 08:52:46;;;;;;;28.55;16.12;;;;;;;;;;1732179;81;25448;-59
2024/03/06 08:55:14;;;;;;;30.00;17.07;;;;;;;;;;1732977;81;27888;-57
2024/03/06 08:57:40;;;;;;;35.08;16.97;;;;;;;;;;1726785;81;25385;-58
2024/03/06 09:00:15;;;;;;;28.98;15.60;;;;;;;;;;1729914;82;25643;-59
2024/03/06 09:02:41;;;;;;;31.27;14.85;;;;;;;;;;1721784;81;25895;-68
2024/03/06 09:05:10;;;;;;;31.37;15.78;;;;;;;;;;1728105;81;25714;-68
2024/03/06 09:07:42;;;;;;;26.42;15.72;;;;;;;;;;1720270;81;27696;-68
2024/03/06 09:10:12;;;;;;;35.03;17.73;;;;;;;;;;1729952;81;25515;-69
2024/03/06 09:12:42;;;;;;;26.95;14.73;;;;;;;;;;1743206;81;25476;-69
2024/03/06 09:15:11;;;;;;;34.50;16.70;;;;;;;;;;1742059;81;26676;-68
2024/03/06 09:17:38;;;;;;;33.05;16.40;;;;;;;;;;1724333;81;25764;-69
2024/03/06 09:20:09;;;;;;;28.90;15.63;;;;;;;;;;1749743;81;27491;-69
2024/03/06 09:22:33;;;;;;;32.60;17.50;;;;;;;;;;1734601;81;26079;-70
2024/03/06 09:24:59;;;;;;;25.70;16.42;;;;;;;;;;1663618;85;29673;-70
2024/03/06 09:27:25;;;;;;;33.75;17.73;;;;;;;;;;1759368;79;35076;-69
2024/03/06 09:29:51;;;;;;;28.75;16.00;;;;;;;;;;1770016;79;25462;-70
2024/03/06 09:32:19;;;;;;;34.23;18.50;;;;;;;;;;1766354;79;27830;-70
2024/03/06 09:34:45;;;;;;;30.92;17.90;;;;;;;;;;1767312;80;25777;-69
2024/03/06 09:37:10;;;;;;;29.90;16.52;;;;;;;;;;1778642;79;29854;-69
2024/03/06 09:39:37;;;;;;;26.90;16.12;;;;;;;;;;1759950;79;35015;-69
2024/03/06 09:42:09;;;;;;;28.57;17.00;;;;;;;;;;1764473;79;25466;-68
2024/03/06 09:44:35;;;;;;;33.35;16.90;;;;;;;;;;1747951;80;27480;-59
2024/03/06 09:47:06;;;;;;;32.45;16.93;;;;;;;;;;1767115;80;33438;-59
2024/03/06 09:49:33;;;;;;;32.93;17.35;;;;;;;;;;1751243;80;25614;-59
2024/03/06 09:52:03;;;;;;;32.80;17.95;;;;;;;;;;1696396;81;26638;-59
2024/03/06 09:54:30;;;;;;;32.88;17.67;;;;;;;;;;1750199;80;25884;-59
2024/03/06 09:56:59;;;;;;;28.92;17.02;;;;;;;;;;1776352;79;27787;-59
2024/03/06 09:59:27;;;;;;;33.85;15.83;;;;;;;;;;1745961;80;25452;-60
2024/03/06 10:02:02;;;;;;;31.80;16.48;;;;;;;;;;1742777;81;25874;-59
2024/03/06 10:04:31;;;;;;;29.55;15.85;;;;;;;;;;1756068;80;26774;-60
2024/03/06 10:07:02;;;;;;;36.60;17.32;;;;;;;;;;1764044;79;25795;-59
2024/03/06 10:09:30;;;;;;;30.50;15.53;;;;;;;;;;1763225;80;27780;-60
2024/03/06 10:11:56;;;;;;;33.42;15.88;;;;;;;;;;1751588;80;25494;-60
2024/03/06 10:14:23;;;;;;;34.63;15.63;;;;;;;;;;1766605;80;29662;-58
2024/03/06 10:16:58;;;;;;;29.52;16.52;;;;;;;;;;1744884;80;25682;-60
2024/03/06 10:19:29;;;;;;;27.27;14.60;;;;;;;;;;1769103;79;25576;-59
2024/03/06 10:21:57;;;;;;;27.45;14.73;;;;;;;;;;1772607;80;27842;-59
2024/03/06 10:24:25;;;;;;;31.62;17.37;;;;;;;;;;1762156;80;25484;-58
2024/03/06 10:26:54;;;;;;;31.95;16.40;;;;;;;;;;1764444;79;25824;-60
2024/03/06 10:29:24;;;;;;;26.97;15.98;;;;;;;;;;1745782;79;25652;-59
2024/03/06 10:31:55;;;;;;;24.45;14.18;;;;;;;;;;1747978;80;25619;-54
2024/03/06 10:34:27;;;;;;;31.60;16.50;;;;;;;;;;1755826;80;27386;-60
2024/03/06 10:37:00;;;;;;;27.05;14.35;;;;;;;;;;1742405;80;26110;-62
2024/03/06 10:39:30;;;;;;;24.82;15.23;;;;;;;;;;1745126;80;25677;-60
2024/03/06 10:41:57;;;;;;;25.27;13.72;;;;;;;;;;1748853;80;25670;-59
2024/03/06 10:44:25;;;;;;;22.90;13.13;;;;;;;;;;1745147;80;25890;-60
2024/03/06 10:47:00;;;;;;;25.50;13.93;;;;;;;;;;1748360;80;27296;-61
2024/03/06 10:49:30;;;;;;;24.27;12.28;;;;;;;;;;1749886;80;25523;-61
2024/03/06 10:52:06;;;;;;;23.45;12.68;;;;;;;;;;1767809;79;25728;-60
2024/03/06 10:54:36;;;;;;;21.45;12.43;;;;;;;;;;1725579;81;25879;-60
2024/03/06 10:57:03;;;;;;;22.48;13.60;;;;;;;;;;1700110;82;25494;-59
2024/03/06 10:59:33;;;;;;;21.12;11.85;;;;;;;;;;1758527;80;27184;-61
2024/03/06 11:02:02;;;;;;;24.47;12.90;;;;;;;;;;1727061;81;26097;-60
2024/03/06 11:04:30;;;;;;;20.15;12.03;;;;;;;;;;1703397;81;26044;-71
2024/03/06 11:06:57;;;;;;;20.60;12.10;;;;;;;;;;1755337;80;25617;-72
2024/03/06 11:09:27;;;;;;;21.97;12.43;;;;;;;;;;1760074;80;25811;-72
2024/03/06 11:11:56;;;;;;;23.70;12.30;;;;;;;;;;1759909;80;27339;-72
2024/03/06 11:14:24;;;;;;;21.50;12.45;;;;;;;;;;1763426;80;25703;-72
2024/03/06 11:17:00;;;;;;;21.25;11.22;;;;;;;;;;1752862;80;25439;-72
2024/03/06 11:19:27;;;;;;;20.95;11.25;;;;;;;;;;1732095;80;25804;-72
2024/03/06 11:21:53;;;;;;;17.50;10.60;;;;;;;;;;1737417;80;25804;-72
2024/03/06 11:24:23;;;;;;;13.70;9.50;;;;;;;;;;1730014;80;27297;-72
2024/03/06 11:27:01;;;;;;;18.32;10.58;;;;;;;;;;1762301;79;25556;-72
2024/03/06 11:29:30;;;;;;;17.70;10.05;;;;;;;;;;1767911;79;25934;-72
2024/03/06 11:32:09;;;;;;;17.80;10.00;;;;;;;;;;1772049;79;26284;-71
2024/03/06 11:34:37;;;;;;;17.42;10.48;;;;;;;;;;1764696;80;25491;-72
2024/03/06 11:37:09;;;;;;;16.75;10.45;;;;;;;;;;1771202;79;27313;-71
2024/03/06 11:39:40;;;;;;;17.20;10.38;;;;;;;;;;1765718;80;25752;-72
2024/03/06 11:42:08;;;;;;;14.23;9.78;;;;;;;;;;1771674;79;25761;-72
2024/03/06 11:44:36;;;;;;;16.57;9.70;;;;;;;;;;1769872;79;26409;-72
2024/03/06 11:47:08;;;;;;;18.35;9.83;;;;;;;;;;1771718;79;25893;-72
2024/03/06 11:49:37;;;;;;;16.30;9.70;;;;;;;;;;1756573;80;27994;-72
2024/03/06 11:52:07;;;;;;;16.77;11.30;;;;;;;;;;1771552;79;25547;-72
2024/03/06 11:54:34;;;;;;;25.23;14.93;;;;;;;;;;1771369;79;26149;-72
2024/03/06 11:57:04;;;;;;;18.87;10.18;;;;;;;;;;1770766;80;25823;-71
2024/03/06 11:59:32;;;;;;;;;;;;;;;;;;1749397;80;25802;-71
2024/03/06 12:02:01;;;;;;;;;;;;;;;;;;1752698;81;27491;-71
2024/03/06 12:04:31;;;;;;;17.50;8.95;;;;;;;;;;1759645;80;25684;-72
2024/03/06 12:07:06;;;;;;;13.78;7.95;;;;;;;;;;1744537;80;25873;-72
2024/03/06 12:09:29;;;;;;;22.90;7.50;;;;;;;;;;1766411;80;26091;-72
2024/03/06 12:11:57;;;;;;;15.60;8.08;;;;;;;;;;1724888;80;32699;-71
2024/03/06 12:14:24;;;;;;;14.18;7.92;;;;;;;;;;1735089;80;27355;-73
2024/03/06 12:17:04;;;;;;;15.75;7.87;;;;;;;;;;1732516;81;25451;-72
2024/03/06 12:19:37;;;;;;;13.38;7.42;;;;;;;;;;1738427;81;25580;-72
2024/03/06 12:22:04;;;;;;;13.95;8.03;;;;;;;;;;1740863;80;25689;-70
2024/03/06 12:24:30;;;;;;;12.70;7.12;;;;;;;;;;1740177;79;25819;-71
2024/03/06 12:27:06;;;;;;;16.12;7.65;;;;;;;;;;1745611;79;27368;-72
2024/03/06 12:29:35;;;;;;;13.30;8.10;;;;;;;;;;1759095;79;25809;-72
2024/03/06 12:32:03;;;;;;;9.30;6.53;;;;;;;;;;1758846;79;25501;-71
2024/03/06 12:34:33;;;;;;;11.10;7.35;;;;;;;;;;1754252;79;25883;-72
2024/03/06 12:37:13;;;;;;;14.95;7.78;;;;;;;;;;1767878;78;25831;-72
2024/03/06 12:39:39;;;;;;;13.03;7.55;;;;;;;;;;1757998;80;27537;-71
2024/03/06 12:42:06;;;;;;;12.10;7.50;;;;;;;;;;1769255;80;26048;-71
2024/03/06 12:44:33;;;;;;;15.55;9.10;;;;;;;;;;1764260;79;25877;-72
2024/03/06 12:47:00;;;;;;;13.55;7.47;;;;;;;;;;1762412;79;25829;-71
2024/03/06 12:49:26;;;;;;;14.53;7.72;;;;;;;;;;1760963;79;25933;-71
2024/03/06 12:51:53;;;;;;;11.00;7.97;;;;;;;;;;1757381;80;27471;-71
2024/03/06 12:54:20;;;;;;;12.80;8.33;;;;;;;;;;1755427;80;25891;-71
2024/03/06 12:56:49;;;;;;;13.72;8.90;;;;;;;;;;1743001;79;25938;-72
2024/03/06 12:59:15;;;;;;;14.90;8.93;;;;;;;;;;1759372;79;26271;-73
2024/03/06 13:01:42;;;;;;;14.73;7.83;;;;;;;;;;1751204;80;25814;-72
2024/03/06 13:04:09;;;;;;;15.90;8.68;;;;;;;;;;1744740;79;27303;-72
2024/03/06 13:06:36;;;;;;;11.90;7.47;;;;;;;;;;1752774;79;25763;-72
2024/03/06 13:09:02;;;;;;;11.60;7.50;;;;;;;;;;1754833;80;25674;-73
2024/03/06 13:11:28;;;;;;;11.85;7.90;;;;;;;;;;1754876;79;25713;-72
2024/03/06 13:13:54;;;;;;;13.05;7.00;;;;;;;;;;1769919;79;32255;-71
2024/03/06 13:16:21;;;;;;;14.47;7.97;;;;;;;;;;1744643;79;28062;-71
2024/03/06 13:18:48;;;;;;;12.98;7.90;;;;;;;;;;1767722;79;25449;-72
2024/03/06 13:21:15;;;;;;;11.83;8.00;;;;;;;;;;1764626;80;25802;-74
2024/03/06 13:23:42;;;;;;;14.35;7.30;;;;;;;;;;1745821;80;26410;-71
2024/03/06 13:26:09;;;;;;;11.53;7.80;;;;;;;;;;1739631;80;25471;-74
2024/03/06 13:28:36;;;;;;;13.28;7.90;;;;;;;;;;1766763;79;27309;-71
2024/03/06 13:31:02;;;;;;;13.85;8.40;;;;;;;;;;1766779;80;33285;-72
2024/03/06 13:33:30;;;;;;;15.00;8.28;;;;;;;;;;1757628;79;26263;-72
2024/03/06 13:35:56;;;;;;;12.30;7.92;;;;;;;;;;1769227;80;25605;-73
2024/03/06 13:38:22;;;;;;;11.60;8.65;;;;;;;;;;1767315;79;25776;-71
2024/03/06 13:40:48;;;;;;;12.53;8.58;;;;;;;;;;1763718;79;27270;-73
2024/03/06 13:43:15;;;;;;;16.40;9.53;;;;;;;;;;1759427;79;25596;-72
2024/03/06 13:45:50;;;;;;;13.03;8.73;;;;;;;;;;1769794;79;25603;-72
2024/03/06 13:48:16;;;;;;;16.77;10.28;;;;;;;;;;1763137;79;26358;-57
2024/03/06 13:50:44;;;;;;;17.27;10.28;;;;;;;;;;1778065;80;25861;-57
2024/03/06 13:53:12;;;;;;;17.05;10.03;;;;;;;;;;1769764;79;27945;-58
2024/03/06 13:55:41;;;;;;;18.17;10.80;;;;;;;;;;1768926;79;25590;-57
2024/03/06 14:00:36;;;;;;;16.60;10.68;;;;;;;7.10;70.75;101013.09;1868362;76;34752;-58
2024/03/06 14:03:04;;;;;;;15.53;9.78;;;;;;;7.13;70.74;101009.04;1824507;78;25239;-58
2024/03/06 14:05:33;;;;;;;18.27;10.08;;;;;;;7.29;71.59;101005.84;1824398;78;28622;-57
2024/03/06 14:07:59;;;;;;;16.25;10.75;;;;;;;7.41;71.06;101011.75;1824401;78;25569;-58
2024/03/06 14:10:26;;;;;;;21.02;10.95;;;;;;;7.43;70.69;101013.63;1824420;78;25542;-59
2024/03/06 14:12:54;;;;;;;18.45;10.95;;;;;;;7.41;70.49;101019.03;1824367;78;25506;-59
2024/03/06 14:15:23;;;;;;;16.93;10.45;;;;;;;7.32;69.66;101012.03;1824468;78;25370;-57
2024/03/06 14:17:50;;;;;;;18.45;10.40;;;;;;;7.21;69.61;101017.13;1824450;78;27809;-58
2024/03/06 14:20:17;;;;;;;16.90;10.93;;;;;;;7.10;69.71;101017.67;1824335;78;25639;-59